createdAt,value
2023-03-26T00:03:05.172Z,99156.03
2023-03-26T00:08:11.452Z,99225.31
2023-03-26T00:13:13.166Z,99208.41
2023-03-26T00:18:15.516Z,99250.81
2023-03-26T00:23:17.638Z,99240.22
2023-03-26T00:28:22.281Z,99241.41
2023-03-26T00:33:24.276Z,99213.81
2023-03-26T00:38:27.420Z,99213.84
2023-03-26T00:43:32.908Z,99153.38
2023-03-26T00:48:42.198Z,99174.22
2023-03-26T00:53:48.773Z,99182.16
2023-03-26T00:58:50.676Z,99167.19
2023-03-26T01:04:07.256Z,99174.81
2023-03-26T01:09:17.174Z,99152.41
2023-03-26T01:14:23.627Z,99140.22
2023-03-26T01:19:25.873Z,99156.88
2023-03-26T01:24:27.553Z,99156.09
2023-03-26T01:29:29.110Z,99150.19
2023-03-26T01:34:49.857Z,99113.66
2023-03-26T01:39:57.559Z,99046.03
2023-03-26T01:45:15.502Z,99071.34
2023-03-26T01:50:17.380Z,99060.88
2023-03-26T01:55:19.604Z,99038.88
2023-03-26T02:00:35.884Z,99032.69
2023-03-26T02:05:44.121Z,99069.38
2023-03-26T02:10:49.008Z,99039.38
2023-03-26T02:16:01.935Z,98987.69
2023-03-26T02:21:10.035Z,98909.09
2023-03-26T02:26:11.738Z,99040.38
2023-03-26T02:31:13.981Z,98951.47
2023-03-26T02:36:19.706Z,99009.84
2023-03-26T02:41:22.037Z,98936.03
2023-03-26T02:46:23.679Z,98997.63
2023-03-26T02:51:25.895Z,98948.41
2023-03-26T02:56:28.066Z,98951.97
2023-03-26T03:01:30.968Z,98926.34
2023-03-26T03:06:32.889Z,98908.41
2023-03-26T03:11:35.586Z,98898.22
2023-03-26T03:16:37.316Z,98907.06
2023-03-26T03:21:39.861Z,98909.19
2023-03-26T03:26:42.414Z,98917.47
2023-03-26T03:31:44.264Z,98916.59
2023-03-26T03:36:49.093Z,98882.38
2023-03-26T03:41:51.033Z,98889.44
2023-03-26T03:46:55.578Z,98855.66
2023-03-26T03:51:57.512Z,98856.00
2023-03-26T03:56:59.298Z,98810.53
2023-03-26T04:02:00.999Z,98827.56
2023-03-26T04:07:02.651Z,98810.19
2023-03-26T04:12:04.533Z,98774.81
2023-03-26T04:17:06.302Z,98777.63
2023-03-26T04:22:08.085Z,98803.38
2023-03-26T04:27:20.285Z,98668.69
2023-03-26T04:32:30.522Z,98694.66
2023-03-26T04:37:35.276Z,98711.91
2023-03-26T04:42:41.653Z,98770.44
2023-03-26T04:47:43.814Z,98738.50
2023-03-26T04:52:46.006Z,98748.75
2023-03-26T04:57:53.280Z,98693.09
2023-03-26T05:02:57.822Z,98699.56
2023-03-26T05:07:59.524Z,98730.78
2023-03-26T05:13:01.533Z,98667.91
2023-03-26T05:18:03.221Z,98716.84
2023-03-26T05:23:04.874Z,98670.28
2023-03-26T05:28:06.535Z,98631.75
2023-03-26T05:33:08.362Z,98646.50
2023-03-26T05:38:10.056Z,98604.41
2023-03-26T05:48:39.023Z,98629.97
2023-03-26T05:53:41.022Z,98588.25
2023-03-26T05:58:44.026Z,98605.59
2023-03-26T06:03:46.279Z,98630.69
2023-03-26T06:09:02.014Z,98601.78
2023-03-26T06:14:05.020Z,98605.91
2023-03-26T06:19:07.123Z,98632.47
2023-03-26T06:29:35.093Z,98585.84
2023-03-26T06:34:37.082Z,98575.31
2023-03-26T06:39:39.071Z,98563.19
2023-03-26T06:44:41.108Z,98516.59
2023-03-26T06:49:44.914Z,98537.63
2023-03-26T06:54:47.122Z,98551.69
2023-03-26T06:59:49.104Z,98552.28
2023-03-26T07:04:51.485Z,98544.56
2023-03-26T07:09:54.259Z,98528.63
2023-03-26T07:14:59.028Z,98488.66
2023-03-26T07:20:02.109Z,98473.94
2023-03-26T07:25:05.172Z,98492.34
2023-03-26T07:30:16.156Z,98454.88
2023-03-26T07:35:36.194Z,98432.66
2023-03-26T07:41:17.178Z,98445.88
2023-03-26T07:46:26.148Z,98437.53
2023-03-26T07:51:29.172Z,98292.94
2023-03-26T07:56:49.263Z,98471.59
2023-03-26T08:02:18.564Z,98207.59
2023-03-26T08:07:29.303Z,98480.34
2023-03-26T08:12:44.197Z,98476.69
2023-03-26T08:17:54.299Z,98401.41
2023-03-26T08:23:06.214Z,98351.28
2023-03-26T08:28:35.203Z,98508.41
2023-03-26T08:33:38.344Z,98496.09
2023-03-26T08:38:40.216Z,98437.91
2023-03-26T08:44:20.206Z,98474.56
2023-03-26T08:49:39.268Z,98489.56
2023-03-26T08:55:05.232Z,98415.25
2023-03-26T09:00:22.240Z,98488.72
2023-03-26T09:05:52.621Z,98467.81
2023-03-26T09:11:19.391Z,98452.22
2023-03-26T09:16:35.345Z,98422.31
2023-03-26T09:22:09.300Z,98486.44
2023-03-26T09:27:32.312Z,98466.88
2023-03-26T09:32:58.321Z,98470.47
2023-03-26T09:38:03.281Z,98455.50
2023-03-26T09:43:38.315Z,98488.69
2023-03-26T09:49:17.569Z,98452.59
2023-03-26T09:54:45.300Z,98445.38
2023-03-26T09:59:53.346Z,98482.06
2023-03-26T10:05:20.583Z,98484.66
2023-03-26T10:10:59.602Z,98470.00
2023-03-26T10:16:10.377Z,98502.50
2023-03-26T10:21:47.336Z,98503.75
2023-03-26T10:27:08.991Z,98467.31
2023-03-26T10:32:49.466Z,98535.16
2023-03-26T10:38:29.860Z,98523.47
2023-03-26T10:44:10.373Z,98502.13
2023-03-26T10:55:25.455Z,98489.34
2023-03-26T11:06:51.123Z,98540.88
2023-03-26T11:12:26.751Z,98626.00
2023-03-26T11:17:42.541Z,98598.16
2023-03-26T11:22:55.555Z,98625.16
2023-03-26T11:28:19.249Z,98587.22
2023-03-26T11:33:45.626Z,98598.09
2023-03-26T11:38:51.684Z,98586.31
2023-03-26T11:44:09.587Z,98557.38
2023-03-26T11:49:16.797Z,98570.72
2023-03-26T11:54:21.047Z,98557.28
2023-03-26T11:59:56.679Z,98543.09
2023-03-26T12:05:20.870Z,98547.19
2023-03-26T12:10:31.716Z,98520.94
2023-03-26T12:15:33.583Z,98530.19
2023-03-26T12:20:37.600Z,98527.81
2023-03-26T12:25:39.603Z,98533.09
2023-03-26T12:30:52.716Z,98523.22
2023-03-26T12:35:58.639Z,98546.53
2023-03-26T12:41:08.626Z,98515.31
2023-03-26T12:47:57.074Z,98507.38
2023-03-26T12:52:07.154Z,98476.25
2023-03-26T12:57:32.301Z,98502.91
2023-03-26T13:03:01.657Z,98481.59
2023-03-26T13:08:26.530Z,98466.31
2023-03-26T13:13:33.945Z,98435.22
2023-03-26T13:18:53.379Z,98418.50
2023-03-26T13:24:31.152Z,98451.31
2023-03-26T13:30:03.319Z,98442.53
2023-03-26T13:35:10.786Z,98334.28
2023-03-26T13:40:20.699Z,98332.97
2023-03-26T13:45:53.242Z,98441.09
2023-03-26T13:51:19.665Z,98265.19
2023-03-26T13:56:28.020Z,98339.19
2023-03-26T14:01:36.397Z,98390.47
2023-03-26T14:06:47.297Z,98325.78
2023-03-26T14:11:51.557Z,98485.25
2023-03-26T14:17:06.518Z,98523.69
2023-03-26T14:23:13.257Z,98520.50
2023-03-26T14:28:38.337Z,98482.31
2023-03-26T14:33:57.308Z,98483.88
2023-03-26T14:39:14.360Z,98526.69
2023-03-26T14:44:47.894Z,98515.25
2023-03-26T14:50:12.189Z,98507.09
2023-03-26T14:55:31.745Z,98520.41
2023-03-26T15:00:51.345Z,98507.56
2023-03-26T15:06:17.514Z,98482.41
2023-03-26T15:11:45.766Z,98490.00
2023-03-26T15:17:17.666Z,98518.94
2023-03-26T15:22:34.412Z,98541.19
2023-03-26T15:27:57.765Z,98563.41
2023-03-26T15:33:18.027Z,98551.19
2023-03-26T15:38:50.118Z,98539.97
2023-03-26T15:44:23.077Z,98540.16
2023-03-26T15:49:24.792Z,98367.44
2023-03-26T15:54:36.746Z,98446.44
2023-03-26T16:00:01.879Z,98540.91
2023-03-26T16:05:19.499Z,98559.06
2023-03-26T16:10:38.382Z,98531.63
2023-03-26T16:15:40.695Z,98597.19
2023-03-26T16:20:57.269Z,98581.88
2023-03-26T16:26:18.447Z,98586.59
2023-03-26T16:31:37.830Z,98581.47
2023-03-26T16:36:45.176Z,98595.41
2023-03-26T16:42:06.565Z,98641.72
2023-03-26T16:47:21.697Z,98628.56
2023-03-26T16:52:30.212Z,98623.34
2023-03-26T16:58:28.404Z,98607.97
2023-03-26T17:03:52.075Z,98618.03
2023-03-26T17:09:01.407Z,98654.34
2023-03-26T17:14:03.751Z,98672.56
2023-03-26T17:19:33.042Z,98666.50
2023-03-26T17:24:43.321Z,98627.91
2023-03-26T17:30:07.545Z,98633.34
2023-03-26T17:35:09.392Z,98639.50
2023-03-26T17:40:43.509Z,98659.88
2023-03-26T17:45:47.135Z,98619.53
2023-03-26T17:51:40.416Z,98626.56
2023-03-26T17:56:42.447Z,98620.63
2023-03-26T18:01:46.238Z,98647.75
2023-03-26T18:06:56.650Z,98670.19
2023-03-26T18:12:24.673Z,98680.41
2023-03-26T18:17:26.369Z,98656.09
2023-03-26T18:22:30.264Z,98670.34
2023-03-26T18:27:40.892Z,98692.53
2023-03-26T18:33:11.959Z,98709.38
2023-03-26T18:38:36.136Z,98574.41
2023-03-26T18:43:43.858Z,98368.13
2023-03-26T18:48:46.957Z,98668.69
2023-03-26T18:53:56.601Z,98672.31
2023-03-26T18:58:59.788Z,98490.81
2023-03-26T19:04:05.906Z,98676.00
2023-03-26T19:09:30.258Z,98724.34
2023-03-26T19:14:37.044Z,98694.50
2023-03-26T19:19:38.992Z,98703.47
2023-03-26T19:24:42.092Z,98532.09
2023-03-26T19:29:44.517Z,98657.72
2023-03-26T19:34:48.222Z,98684.09
2023-03-26T19:39:54.043Z,98682.69
2023-03-26T19:44:57.271Z,98685.94
2023-03-26T19:50:03.791Z,98639.34
2023-03-26T19:55:10.171Z,98674.41
2023-03-26T20:00:16.074Z,98685.13
2023-03-26T20:05:23.674Z,98687.53
2023-03-26T20:10:26.344Z,98667.91
2023-03-26T20:15:31.816Z,98672.16
2023-03-26T20:20:34.326Z,98673.13
2023-03-26T20:25:51.734Z,98687.78
2023-03-26T20:30:54.701Z,98681.84
2023-03-26T20:35:58.529Z,98692.53
2023-03-26T20:41:00.560Z,98694.56
2023-03-26T20:46:02.549Z,98711.63
2023-03-26T20:51:04.887Z,98708.75
2023-03-26T20:56:15.438Z,98715.97
2023-03-26T21:01:17.558Z,98675.38
2023-03-26T21:06:19.303Z,98719.06
2023-03-26T21:11:29.590Z,98765.88
2023-03-26T21:16:31.524Z,98730.25
2023-03-26T21:21:47.631Z,98784.97
2023-03-26T21:27:27.252Z,98767.38
2023-03-26T21:32:31.616Z,98782.81
2023-03-26T21:37:33.696Z,98770.88
2023-03-26T21:42:35.633Z,98777.78
2023-03-26T21:47:37.781Z,98776.84
2023-03-26T21:52:47.128Z,98761.38
2023-03-26T21:58:00.560Z,98721.22
2023-03-26T22:03:10.084Z,98793.69
2023-03-26T22:08:34.024Z,98803.63
2023-03-26T22:13:35.836Z,98810.66
2023-03-26T22:18:37.466Z,98813.19
2023-03-26T22:23:39.096Z,98801.81
2023-03-26T22:28:40.880Z,98857.88
2023-03-26T22:33:42.945Z,98848.88
2023-03-26T22:38:44.961Z,98886.66
2023-03-26T22:43:46.789Z,98883.66
2023-03-26T22:48:48.674Z,98921.22
2023-03-26T22:53:50.246Z,98910.00
2023-03-26T22:58:51.895Z,98918.97
2023-03-26T23:03:54.577Z,98873.84
2023-03-26T23:08:57.071Z,98940.03
2023-03-26T23:13:58.883Z,98957.94
2023-03-26T23:19:00.713Z,98925.56
2023-03-26T23:24:03.767Z,98779.44
2023-03-26T23:29:05.356Z,98882.13
2023-03-26T23:34:06.913Z,98966.91
2023-03-26T23:39:08.907Z,98924.78
2023-03-26T23:44:14.391Z,98894.91
2023-03-26T23:49:16.204Z,98963.44
2023-03-26T23:54:18.698Z,99021.56
2023-03-26T23:59:20.428Z,99065.56
